sensor_id;sensor_type;location;lat;lon;timestamp;P1;durP1;ratioP1;P2;durP2;ratioP2
12768;SDS011;6448;48.916;8.990;2022-11-14T00:01:09;6.88;;;6.38;;
12768;SDS011;6448;48.916;8.990;2022-11-14T00:02:31;7.30;;;6.70;;
12768;SDS011;6448;48.916;8.990;2022-11-14T00:03:51;7.20;;;6.60;;
12768;SDS011;6448;48.916;8.990;2022-11-14T00:05:12;7.47;;;6.88;;
12768;SDS011;6448;48.916;8.990;2022-11-14T00:06:32;7.20;;;6.60;;
12768;SDS011;6448;48.916;8.990;2022-11-14T00:07:52;7.10;;;6.60;;
12768;SDS011;6448;48.916;8.990;2022-11-14T00:09:12;7.55;;;6.95;;
12768;SDS011;6448;48.916;8.990;2022-11-14T00:10:32;7.20;;;6.60;;
12768;SDS011;6448;48.916;8.990;2022-11-14T00:11:53;7.27;;;6.67;;
12768;SDS011;6448;48.916;8.990;2022-11-14T00:13:15;7.32;;;6.72;;
12768;SDS011;6448;48.916;8.990;2022-11-14T00:14:36;7.07;;;6.57;;
12768;SDS011;6448;48.916;8.990;2022-11-14T00:15:56;7.20;;;6.60;;
12768;SDS011;6448;48.916;8.990;2022-11-14T00:17:17;7.32;;;6.75;;
12768;SDS011;6448;48.916;8.990;2022-11-14T00:18:37;7.22;;;6.63;;
12768;SDS011;6448;48.916;8.990;2022-11-14T00:19:58;6.97;;;6.47;;
12768;SDS011;6448;48.916;8.990;2022-11-14T00:21:17;6.97;;;6.40;;
12768;SDS011;6448;48.916;8.990;2022-11-14T00:22:38;7.07;;;6.57;;
12768;SDS011;6448;48.916;8.990;2022-11-14T00:23:58;7.15;;;6.55;;
12768;SDS011;6448;48.916;8.990;2022-11-14T00:25:18;6.97;;;6.38;;
12768;SDS011;6448;48.916;8.990;2022-11-14T00:26:38;7.05;;;6.50;;
12768;SDS011;6448;48.916;8.990;2022-11-14T00:27:58;6.90;;;6.35;;
12768;SDS011;6448;48.916;8.990;2022-11-14T00:29:20;7.43;;;6.82;;
12768;SDS011;6448;48.916;8.990;2022-11-14T00:30:39;6.95;;;6.38;;
12768;SDS011;6448;48.916;8.990;2022-11-14T00:31:59;7.32;;;6.72;;
12768;SDS011;6448;48.916;8.990;2022-11-14T00:33:20;6.63;;;6.13;;
12768;SDS011;6448;48.916;8.990;2022-11-14T00:34:40;6.88;;;6.35;;
12768;SDS011;6448;48.916;8.990;2022-11-14T00:36:00;7.10;;;6.50;;
12768;SDS011;6448;48.916;8.990;2022-11-14T00:37:20;7.10;;;6.50;;
12768;SDS011;6448;48.916;8.990;2022-11-14T00:38:40;7.07;;;6.50;;
12768;SDS011;6448;48.916;8.990;2022-11-14T00:40:01;6.78;;;6.28;;
12768;SDS011;6448;48.916;8.990;2022-11-14T00:41:21;6.80;;;6.30;;
12768;SDS011;6448;48.916;8.990;2022-11-14T00:42:42;7.00;;;6.45;;
12768;SDS011;6448;48.916;8.990;2022-11-14T00:44:03;6.97;;;6.47;;
12768;SDS011;6448;48.916;8.990;2022-11-14T00:45:25;6.75;;;6.20;;
12768;SDS011;6448;48.916;8.990;2022-11-14T00:46:44;6.85;;;6.30;;
12768;SDS011;6448;48.916;8.990;2022-11-14T00:48:05;6.95;;;6.43;;
12768;SDS011;6448;48.916;8.990;2022-11-14T00:49:25;7.07;;;6.57;;
12768;SDS011;6448;48.916;8.990;2022-11-14T00:50:45;6.80;;;6.30;;
12768;SDS011;6448;48.916;8.990;2022-11-14T00:52:05;6.60;;;6.10;;
12768;SDS011;6448;48.916;8.990;2022-11-14T00:53:26;6.33;;;5.83;;
12768;SDS011;6448;48.916;8.990;2022-11-14T00:54:47;7.40;;;6.80;;
12768;SDS011;6448;48.916;8.990;2022-11-14T00:56:07;6.80;;;6.30;;
12768;SDS011;6448;48.916;8.990;2022-11-14T00:57:27;6.95;;;6.43;;
12768;SDS011;6448;48.916;8.990;2022-11-14T00:58:46;6.63;;;6.13;;
12768;SDS011;6448;48.916;8.990;2022-11-14T01:00:08;7.13;;;6.60;;
12768;SDS011;6448;48.916;8.990;2022-11-14T01:01:31;6.63;;;6.13;;
12768;SDS011;6448;48.916;8.990;2022-11-14T01:02:52;6.63;;;6.10;;
12768;SDS011;6448;48.916;8.990;2022-11-14T01:04:14;7.13;;;6.53;;
12768;SDS011;6448;48.916;8.990;2022-11-14T01:05:39;7.35;;;6.75;;
12768;SDS011;6448;48.916;8.990;2022-11-14T01:06:58;8.00;;;7.30;;
12768;SDS011;6448;48.916;8.990;2022-11-14T01:08:19;7.68;;;7.07;;
12768;SDS011;6448;48.916;8.990;2022-11-14T01:09:39;7.60;;;7.00;;
12768;SDS011;6448;48.916;8.990;2022-11-14T01:10:59;7.93;;;7.32;;
12768;SDS011;6448;48.916;8.990;2022-11-14T01:12:20;8.18;;;7.47;;
12768;SDS011;6448;48.916;8.990;2022-11-14T01:13:40;7.65;;;7.05;;
12768;SDS011;6448;48.916;8.990;2022-11-14T01:15:00;7.63;;;7.03;;
12768;SDS011;6448;48.916;8.990;2022-11-14T01:16:20;7.38;;;6.78;;
12768;SDS011;6448;48.916;8.990;2022-11-14T01:17:42;7.65;;;7.05;;
12768;SDS011;6448;48.916;8.990;2022-11-14T01:19:02;8.10;;;7.50;;
12768;SDS011;6448;48.916;8.990;2022-11-14T01:20:22;7.45;;;6.85;;
12768;SDS011;6448;48.916;8.990;2022-11-14T01:21:42;7.63;;;7.03;;
12768;SDS011;6448;48.916;8.990;2022-11-14T01:23:02;8.05;;;7.38;;
12768;SDS011;6448;48.916;8.990;2022-11-14T01:24:23;7.70;;;7.10;;
12768;SDS011;6448;48.916;8.990;2022-11-14T01:25:43;6.90;;;6.40;;
12768;SDS011;6448;48.916;8.990;2022-11-14T01:27:04;7.50;;;6.90;;
12768;SDS011;6448;48.916;8.990;2022-11-14T01:28:24;7.38;;;6.78;;
12768;SDS011;6448;48.916;8.990;2022-11-14T01:29:44;7.38;;;6.70;;
12768;SDS011;6448;48.916;8.990;2022-11-14T01:31:08;7.35;;;6.75;;
12768;SDS011;6448;48.916;8.990;2022-11-14T01:32:29;7.55;;;6.95;;
12768;SDS011;6448;48.916;8.990;2022-11-14T01:33:51;7.40;;;6.80;;
12768;SDS011;6448;48.916;8.990;2022-11-14T01:35:11;7.38;;;6.78;;
12768;SDS011;6448;48.916;8.990;2022-11-14T01:36:32;7.40;;;6.80;;
12768;SDS011;6448;48.916;8.990;2022-11-14T01:37:52;6.95;;;6.45;;
12768;SDS011;6448;48.916;8.990;2022-11-14T01:39:13;7.25;;;6.65;;
12768;SDS011;6448;48.916;8.990;2022-11-14T01:40:33;7.50;;;6.90;;
12768;SDS011;6448;48.916;8.990;2022-11-14T01:41:58;6.85;;;6.35;;
12768;SDS011;6448;48.916;8.990;2022-11-14T01:43:23;7.00;;;6.50;;
12768;SDS011;6448;48.916;8.990;2022-11-14T01:44:44;7.15;;;6.57;;
12768;SDS011;6448;48.916;8.990;2022-11-14T01:46:07;7.28;;;6.70;;
12768;SDS011;6448;48.916;8.990;2022-11-14T01:47:31;7.13;;;6.63;;
12768;SDS011;6448;48.916;8.990;2022-11-14T01:48:53;7.40;;;6.80;;
12768;SDS011;6448;48.916;8.990;2022-11-14T01:50:16;6.72;;;6.18;;
12768;SDS011;6448;48.916;8.990;2022-11-14T01:51:37;7.18;;;6.57;;
12768;SDS011;6448;48.916;8.990;2022-11-14T01:53:01;7.28;;;6.70;;
12768;SDS011;6448;48.916;8.990;2022-11-14T01:54:23;6.60;;;6.10;;
12768;SDS011;6448;48.916;8.990;2022-11-14T01:55:46;7.20;;;6.60;;
12768;SDS011;6448;48.916;8.990;2022-11-14T01:57:06;6.85;;;6.35;;
12768;SDS011;6448;48.916;8.990;2022-11-14T01:58:27;7.00;;;6.50;;
12768;SDS011;6448;48.916;8.990;2022-11-14T01:59:49;7.07;;;6.57;;
12768;SDS011;6448;48.916;8.990;2022-11-14T02:01:13;7.22;;;6.70;;
12768;SDS011;6448;48.916;8.990;2022-11-14T02:02:32;6.90;;;6.40;;
12768;SDS011;6448;48.916;8.990;2022-11-14T02:03:55;6.67;;;6.17;;
12768;SDS011;6448;48.916;8.990;2022-11-14T02:05:17;6.70;;;6.20;;
12768;SDS011;6448;48.916;8.990;2022-11-14T02:06:37;6.63;;;6.13;;
12768;SDS011;6448;48.916;8.990;2022-11-14T02:07:58;6.85;;;6.32;;
12768;SDS011;6448;48.916;8.990;2022-11-14T02:09:18;6.97;;;6.47;;
12768;SDS011;6448;48.916;8.990;2022-11-14T02:10:38;6.90;;;6.40;;
12768;SDS011;6448;48.916;8.990;2022-11-14T02:11:58;7.13;;;6.55;;
12768;SDS011;6448;48.916;8.990;2022-11-14T02:13:19;6.93;;;6.38;;
12768;SDS011;6448;48.916;8.990;2022-11-14T02:14:40;6.60;;;6.10;;
12768;SDS011;6448;48.916;8.990;2022-11-14T02:16:03;7.05;;;6.47;;
12768;SDS011;6448;48.916;8.990;2022-11-14T02:17:23;6.78;;;6.28;;
12768;SDS011;6448;48.916;8.990;2022-11-14T02:18:44;7.17;;;6.57;;
12768;SDS011;6448;48.916;8.990;2022-11-14T02:20:15;7.00;;;6.40;;
12768;SDS011;6448;48.916;8.990;2022-11-14T02:21:40;6.70;;;6.20;;
12768;SDS011;6448;48.916;8.990;2022-11-14T02:23:00;7.13;;;6.53;;
12768;SDS011;6448;48.916;8.990;2022-11-14T02:24:19;7.30;;;6.70;;
12768;SDS011;6448;48.916;8.990;2022-11-14T02:25:40;7.57;;;6.97;;
12768;SDS011;6448;48.916;8.990;2022-11-14T02:27:00;7.15;;;6.57;;
12768;SDS011;6448;48.916;8.990;2022-11-14T02:28:21;7.13;;;6.53;;
12768;SDS011;6448;48.916;8.990;2022-11-14T02:29:40;6.93;;;6.40;;
12768;SDS011;6448;48.916;8.990;2022-11-14T02:31:01;7.00;;;6.50;;
12768;SDS011;6448;48.916;8.990;2022-11-14T02:32:21;7.30;;;6.70;;
12768;SDS011;6448;48.916;8.990;2022-11-14T02:33:41;6.78;;;6.28;;
12768;SDS011;6448;48.916;8.990;2022-11-14T02:35:01;6.38;;;5.88;;
12768;SDS011;6448;48.916;8.990;2022-11-14T02:36:23;6.75;;;6.25;;
12768;SDS011;6448;48.916;8.990;2022-11-14T02:37:43;6.50;;;6.00;;
12768;SDS011;6448;48.916;8.990;2022-11-14T02:39:03;6.38;;;5.88;;
12768;SDS011;6448;48.916;8.990;2022-11-14T02:40:23;6.03;;;5.63;;
12768;SDS011;6448;48.916;8.990;2022-11-14T02:41:42;6.00;;;5.60;;
12768;SDS011;6448;48.916;8.990;2022-11-14T02:43:04;5.63;;;5.23;;
12768;SDS011;6448;48.916;8.990;2022-11-14T02:44:24;5.80;;;5.40;;
12768;SDS011;6448;48.916;8.990;2022-11-14T02:45:44;5.60;;;5.20;;
12768;SDS011;6448;48.916;8.990;2022-11-14T02:47:05;6.00;;;5.60;;
12768;SDS011;6448;48.916;8.990;2022-11-14T02:48:24;5.53;;;5.07;;
12768;SDS011;6448;48.916;8.990;2022-11-14T02:49:45;5.53;;;5.13;;
12768;SDS011;6448;48.916;8.990;2022-11-14T02:51:04;5.53;;;5.13;;
12768;SDS011;6448;48.916;8.990;2022-11-14T02:52:26;5.53;;;5.13;;
12768;SDS011;6448;48.916;8.990;2022-11-14T02:53:45;5.60;;;5.20;;
12768;SDS011;6448;48.916;8.990;2022-11-14T02:55:06;5.20;;;4.80;;
12768;SDS011;6448;48.916;8.990;2022-11-14T02:56:26;5.18;;;4.85;;
12768;SDS011;6448;48.916;8.990;2022-11-14T02:57:47;5.45;;;5.05;;
12768;SDS011;6448;48.916;8.990;2022-11-14T02:59:07;5.20;;;4.80;;
12768;SDS011;6448;48.916;8.990;2022-11-14T03:00:27;5.10;;;4.72;;
12768;SDS011;6448;48.916;8.990;2022-11-14T03:01:47;4.97;;;4.68;;
12768;SDS011;6448;48.916;8.990;2022-11-14T03:03:07;5.22;;;4.82;;
12768;SDS011;6448;48.916;8.990;2022-11-14T03:04:27;4.95;;;4.65;;
12768;SDS011;6448;48.916;8.990;2022-11-14T03:05:47;4.90;;;4.60;;
12768;SDS011;6448;48.916;8.990;2022-11-14T03:07:09;4.90;;;4.60;;
12768;SDS011;6448;48.916;8.990;2022-11-14T03:08:31;4.78;;;4.47;;
12768;SDS011;6448;48.916;8.990;2022-11-14T03:09:52;4.78;;;4.47;;
12768;SDS011;6448;48.916;8.990;2022-11-14T03:11:12;4.80;;;4.50;;
12768;SDS011;6448;48.916;8.990;2022-11-14T03:12:32;5.03;;;4.72;;
12768;SDS011;6448;48.916;8.990;2022-11-14T03:13:52;4.90;;;4.50;;
12768;SDS011;6448;48.916;8.990;2022-11-14T03:15:12;4.60;;;4.30;;
12768;SDS011;6448;48.916;8.990;2022-11-14T03:16:33;4.55;;;4.25;;
12768;SDS011;6448;48.916;8.990;2022-11-14T03:17:52;4.72;;;4.43;;
12768;SDS011;6448;48.916;8.990;2022-11-14T03:19:12;4.68;;;4.38;;
12768;SDS011;6448;48.916;8.990;2022-11-14T03:20:32;4.80;;;4.50;;
12768;SDS011;6448;48.916;8.990;2022-11-14T03:21:52;4.80;;;4.50;;
12768;SDS011;6448;48.916;8.990;2022-11-14T03:23:12;5.00;;;4.60;;
12768;SDS011;6448;48.916;8.990;2022-11-14T03:24:34;5.30;;;4.90;;
12768;SDS011;6448;48.916;8.990;2022-11-14T03:25:54;4.93;;;4.63;;
12768;SDS011;6448;48.916;8.990;2022-11-14T03:27:18;5.00;;;4.60;;
12768;SDS011;6448;48.916;8.990;2022-11-14T03:28:39;4.97;;;4.60;;
12768;SDS011;6448;48.916;8.990;2022-11-14T03:29:58;4.70;;;4.40;;
12768;SDS011;6448;48.916;8.990;2022-11-14T03:31:19;5.33;;;4.93;;
12768;SDS011;6448;48.916;8.990;2022-11-14T03:32:39;4.68;;;4.38;;
12768;SDS011;6448;48.916;8.990;2022-11-14T03:33:59;5.28;;;4.93;;
12768;SDS011;6448;48.916;8.990;2022-11-14T03:35:19;4.82;;;4.50;;
12768;SDS011;6448;48.916;8.990;2022-11-14T03:36:40;5.28;;;4.88;;
12768;SDS011;6448;48.916;8.990;2022-11-14T03:38:00;5.43;;;5.03;;
12768;SDS011;6448;48.916;8.990;2022-11-14T03:39:20;4.97;;;4.65;;
12768;SDS011;6448;48.916;8.990;2022-11-14T03:40:41;4.88;;;4.50;;
12768;SDS011;6448;48.916;8.990;2022-11-14T03:42:02;5.43;;;5.03;;
12768;SDS011;6448;48.916;8.990;2022-11-14T03:43:23;5.20;;;4.80;;
12768;SDS011;6448;48.916;8.990;2022-11-14T03:44:42;5.60;;;5.20;;
12768;SDS011;6448;48.916;8.990;2022-11-14T03:46:03;5.50;;;5.10;;
12768;SDS011;6448;48.916;8.990;2022-11-14T03:47:23;5.55;;;5.15;;
12768;SDS011;6448;48.916;8.990;2022-11-14T03:48:43;5.53;;;5.13;;
12768;SDS011;6448;48.916;8.990;2022-11-14T03:50:03;5.78;;;5.38;;
12768;SDS011;6448;48.916;8.990;2022-11-14T03:51:24;5.65;;;5.25;;
12768;SDS011;6448;48.916;8.990;2022-11-14T03:52:46;5.65;;;5.25;;
12768;SDS011;6448;48.916;8.990;2022-11-14T03:54:07;5.80;;;5.40;;
12768;SDS011;6448;48.916;8.990;2022-11-14T03:55:27;6.07;;;5.60;;
12768;SDS011;6448;48.916;8.990;2022-11-14T03:56:49;5.80;;;5.40;;
12768;SDS011;6448;48.916;8.990;2022-11-14T03:58:08;5.90;;;5.50;;
12768;SDS011;6448;48.916;8.990;2022-11-14T03:59:29;5.50;;;5.10;;
12768;SDS011;6448;48.916;8.990;2022-11-14T04:00:49;5.53;;;5.13;;
12768;SDS011;6448;48.916;8.990;2022-11-14T04:02:10;5.57;;;5.18;;
12768;SDS011;6448;48.916;8.990;2022-11-14T04:03:30;5.47;;;5.07;;
12768;SDS011;6448;48.916;8.990;2022-11-14T04:04:50;5.40;;;5.00;;
12768;SDS011;6448;48.916;8.990;2022-11-14T04:06:10;5.40;;;5.00;;
12768;SDS011;6448;48.916;8.990;2022-11-14T04:07:31;5.33;;;4.93;;
12768;SDS011;6448;48.916;8.990;2022-11-14T04:08:52;5.13;;;4.80;;
12768;SDS011;6448;48.916;8.990;2022-11-14T04:10:11;5.30;;;4.90;;
12768;SDS011;6448;48.916;8.990;2022-11-14T04:11:32;5.30;;;4.90;;
12768;SDS011;6448;48.916;8.990;2022-11-14T04:12:53;5.20;;;4.80;;
12768;SDS011;6448;48.916;8.990;2022-11-14T04:14:13;5.22;;;4.82;;
12768;SDS011;6448;48.916;8.990;2022-11-14T04:15:32;5.20;;;4.80;;
12768;SDS011;6448;48.916;8.990;2022-11-14T04:16:53;5.40;;;5.00;;
12768;SDS011;6448;48.916;8.990;2022-11-14T04:18:13;5.25;;;4.85;;
12768;SDS011;6448;48.916;8.990;2022-11-14T04:19:33;5.50;;;5.10;;
12768;SDS011;6448;48.916;8.990;2022-11-14T04:20:54;5.10;;;4.80;;
12768;SDS011;6448;48.916;8.990;2022-11-14T04:22:13;5.30;;;4.90;;
12768;SDS011;6448;48.916;8.990;2022-11-14T04:23:34;5.10;;;4.80;;
12768;SDS011;6448;48.916;8.990;2022-11-14T04:24:53;5.10;;;4.70;;
12768;SDS011;6448;48.916;8.990;2022-11-14T04:26:14;5.57;;;5.18;;
12768;SDS011;6448;48.916;8.990;2022-11-14T04:27:33;5.10;;;4.70;;
12768;SDS011;6448;48.916;8.990;2022-11-14T04:28:55;5.22;;;4.82;;
12768;SDS011;6448;48.916;8.990;2022-11-14T04:30:15;5.38;;;4.97;;
12768;SDS011;6448;48.916;8.990;2022-11-14T04:31:35;5.07;;;4.78;;
12768;SDS011;6448;48.916;8.990;2022-11-14T04:32:55;5.45;;;5.05;;
12768;SDS011;6448;48.916;8.990;2022-11-14T04:34:14;5.30;;;4.90;;
12768;SDS011;6448;48.916;8.990;2022-11-14T04:35:35;5.53;;;5.13;;
12768;SDS011;6448;48.916;8.990;2022-11-14T04:36:54;5.43;;;5.03;;
12768;SDS011;6448;48.916;8.990;2022-11-14T04:38:15;5.40;;;5.00;;
12768;SDS011;6448;48.916;8.990;2022-11-14T04:39:35;5.70;;;5.30;;
12768;SDS011;6448;48.916;8.990;2022-11-14T04:40:56;5.60;;;5.20;;
12768;SDS011;6448;48.916;8.990;2022-11-14T04:42:17;5.47;;;5.07;;
12768;SDS011;6448;48.916;8.990;2022-11-14T04:43:36;5.25;;;4.85;;
12768;SDS011;6448;48.916;8.990;2022-11-14T04:44:58;4.88;;;4.57;;
12768;SDS011;6448;48.916;8.990;2022-11-14T04:46:18;5.13;;;4.77;;
12768;SDS011;6448;48.916;8.990;2022-11-14T04:47:39;4.80;;;4.50;;
12768;SDS011;6448;48.916;8.990;2022-11-14T04:49:00;5.00;;;4.70;;
12768;SDS011;6448;48.916;8.990;2022-11-14T04:50:20;4.80;;;4.50;;
12768;SDS011;6448;48.916;8.990;2022-11-14T04:51:40;4.90;;;4.60;;
12768;SDS011;6448;48.916;8.990;2022-11-14T04:53:01;5.20;;;4.80;;
12768;SDS011;6448;48.916;8.990;2022-11-14T04:54:23;5.43;;;5.03;;
12768;SDS011;6448;48.916;8.990;2022-11-14T04:55:43;5.65;;;5.25;;
12768;SDS011;6448;48.916;8.990;2022-11-14T04:57:04;5.38;;;4.97;;
12768;SDS011;6448;48.916;8.990;2022-11-14T04:58:23;5.20;;;4.80;;
12768;SDS011;6448;48.916;8.990;2022-11-14T04:59:44;4.70;;;4.40;;
12768;SDS011;6448;48.916;8.990;2022-11-14T05:01:07;4.65;;;4.35;;
12768;SDS011;6448;48.916;8.990;2022-11-14T05:02:29;4.80;;;4.47;;
12768;SDS011;6448;48.916;8.990;2022-11-14T05:03:49;4.93;;;4.53;;
12768;SDS011;6448;48.916;8.990;2022-11-14T05:05:09;4.87;;;4.57;;
12768;SDS011;6448;48.916;8.990;2022-11-14T05:06:29;4.95;;;4.65;;
12768;SDS011;6448;48.916;8.990;2022-11-14T05:07:49;4.72;;;4.43;;
12768;SDS011;6448;48.916;8.990;2022-11-14T05:09:09;5.00;;;4.60;;
12768;SDS011;6448;48.916;8.990;2022-11-14T05:10:29;5.15;;;4.75;;
12768;SDS011;6448;48.916;8.990;2022-11-14T05:11:50;5.32;;;4.93;;
12768;SDS011;6448;48.916;8.990;2022-11-14T05:13:09;5.30;;;4.90;;
12768;SDS011;6448;48.916;8.990;2022-11-14T05:14:30;5.32;;;4.93;;
12768;SDS011;6448;48.916;8.990;2022-11-14T05:15:51;4.90;;;4.50;;
12768;SDS011;6448;48.916;8.990;2022-11-14T05:17:12;5.20;;;4.80;;
12768;SDS011;6448;48.916;8.990;2022-11-14T05:18:33;4.80;;;4.50;;
12768;SDS011;6448;48.916;8.990;2022-11-14T05:19:54;4.95;;;4.60;;
12768;SDS011;6448;48.916;8.990;2022-11-14T05:21:15;4.88;;;4.57;;
12768;SDS011;6448;48.916;8.990;2022-11-14T05:22:35;5.00;;;4.60;;
12768;SDS011;6448;48.916;8.990;2022-11-14T05:23:56;5.18;;;4.78;;
12768;SDS011;6448;48.916;8.990;2022-11-14T05:25:16;4.97;;;4.65;;
12768;SDS011;6448;48.916;8.990;2022-11-14T05:26:36;4.80;;;4.50;;
12768;SDS011;6448;48.916;8.990;2022-11-14T05:27:57;4.93;;;4.60;;
12768;SDS011;6448;48.916;8.990;2022-11-14T05:29:17;4.65;;;4.35;;
12768;SDS011;6448;48.916;8.990;2022-11-14T05:30:37;4.60;;;4.30;;
12768;SDS011;6448;48.916;8.990;2022-11-14T05:31:58;4.70;;;4.30;;
12768;SDS011;6448;48.916;8.990;2022-11-14T05:33:20;4.63;;;4.30;;
12768;SDS011;6448;48.916;8.990;2022-11-14T05:34:39;4.35;;;4.05;;
12768;SDS011;6448;48.916;8.990;2022-11-14T05:36:03;4.47;;;4.18;;
12768;SDS011;6448;48.916;8.990;2022-11-14T05:37:24;4.60;;;4.30;;
12768;SDS011;6448;48.916;8.990;2022-11-14T05:38:44;4.50;;;4.20;;
12768;SDS011;6448;48.916;8.990;2022-11-14T05:40:04;4.50;;;4.20;;
12768;SDS011;6448;48.916;8.990;2022-11-14T05:41:25;4.72;;;4.43;;
12768;SDS011;6448;48.916;8.990;2022-11-14T05:42:45;4.40;;;4.10;;
12768;SDS011;6448;48.916;8.990;2022-11-14T05:44:06;4.50;;;4.20;;
12768;SDS011;6448;48.916;8.990;2022-11-14T05:45:26;4.70;;;4.40;;
12768;SDS011;6448;48.916;8.990;2022-11-14T05:46:46;4.47;;;4.10;;
12768;SDS011;6448;48.916;8.990;2022-11-14T05:48:06;4.90;;;4.50;;
12768;SDS011;6448;48.916;8.990;2022-11-14T05:49:28;4.63;;;4.32;;
12768;SDS011;6448;48.916;8.990;2022-11-14T05:50:52;4.80;;;4.50;;
12768;SDS011;6448;48.916;8.990;2022-11-14T05:52:13;4.90;;;4.53;;
12768;SDS011;6448;48.916;8.990;2022-11-14T05:53:34;4.35;;;4.05;;
12768;SDS011;6448;48.916;8.990;2022-11-14T05:54:55;4.80;;;4.40;;
12768;SDS011;6448;48.916;8.990;2022-11-14T05:56:15;4.38;;;4.07;;
12768;SDS011;6448;48.916;8.990;2022-11-14T05:57:36;4.40;;;4.10;;
12768;SDS011;6448;48.916;8.990;2022-11-14T05:58:56;4.30;;;4.00;;
12768;SDS011;6448;48.916;8.990;2022-11-14T06:00:17;4.47;;;4.18;;
12768;SDS011;6448;48.916;8.990;2022-11-14T06:01:37;4.53;;;4.20;;
12768;SDS011;6448;48.916;8.990;2022-11-14T06:02:57;4.68;;;4.38;;
12768;SDS011;6448;48.916;8.990;2022-11-14T06:04:18;4.60;;;4.30;;
12768;SDS011;6448;48.916;8.990;2022-11-14T06:05:39;4.55;;;4.25;;
12768;SDS011;6448;48.916;8.990;2022-11-14T06:06:59;4.60;;;4.30;;
12768;SDS011;6448;48.916;8.990;2022-11-14T06:08:20;4.38;;;4.07;;
12768;SDS011;6448;48.916;8.990;2022-11-14T06:09:40;4.90;;;4.50;;
12768;SDS011;6448;48.916;8.990;2022-11-14T06:11:01;4.43;;;4.13;;
12768;SDS011;6448;48.916;8.990;2022-11-14T06:12:22;4.55;;;4.20;;
12768;SDS011;6448;48.916;8.990;2022-11-14T06:13:43;4.28;;;3.97;;
12768;SDS011;6448;48.916;8.990;2022-11-14T06:15:03;4.10;;;3.80;;
12768;SDS011;6448;48.916;8.990;2022-11-14T06:16:24;4.43;;;4.13;;
12768;SDS011;6448;48.916;8.990;2022-11-14T06:17:45;4.20;;;3.90;;
12768;SDS011;6448;48.916;8.990;2022-11-14T06:19:05;4.13;;;3.83;;
12768;SDS011;6448;48.916;8.990;2022-11-14T06:20:26;4.30;;;4.00;;
12768;SDS011;6448;48.916;8.990;2022-11-14T06:21:48;4.00;;;3.70;;
12768;SDS011;6448;48.916;8.990;2022-11-14T06:23:08;4.32;;;4.03;;
12768;SDS011;6448;48.916;8.990;2022-11-14T06:24:28;4.40;;;4.05;;
12768;SDS011;6448;48.916;8.990;2022-11-14T06:25:49;4.15;;;3.85;;
12768;SDS011;6448;48.916;8.990;2022-11-14T06:27:09;4.30;;;4.00;;
12768;SDS011;6448;48.916;8.990;2022-11-14T06:28:30;4.40;;;4.10;;
12768;SDS011;6448;48.916;8.990;2022-11-14T06:29:52;4.65;;;4.35;;
12768;SDS011;6448;48.916;8.990;2022-11-14T06:31:12;4.65;;;4.35;;
12768;SDS011;6448;48.916;8.990;2022-11-14T06:32:33;4.05;;;3.75;;
12768;SDS011;6448;48.916;8.990;2022-11-14T06:33:53;4.72;;;4.32;;
12768;SDS011;6448;48.916;8.990;2022-11-14T06:35:14;4.63;;;4.30;;
12768;SDS011;6448;48.916;8.990;2022-11-14T06:36:35;4.40;;;4.10;;
12768;SDS011;6448;48.916;8.990;2022-11-14T06:37:57;4.43;;;4.13;;
12768;SDS011;6448;48.916;8.990;2022-11-14T06:39:18;4.45;;;4.15;;
12768;SDS011;6448;48.916;8.990;2022-11-14T06:40:39;4.85;;;4.45;;
12768;SDS011;6448;48.916;8.990;2022-11-14T06:41:59;4.90;;;4.50;;
12768;SDS011;6448;48.916;8.990;2022-11-14T06:43:19;4.60;;;4.30;;
12768;SDS011;6448;48.916;8.990;2022-11-14T06:44:39;4.40;;;4.10;;
12768;SDS011;6448;48.916;8.990;2022-11-14T06:45:59;4.45;;;4.15;;
12768;SDS011;6448;48.916;8.990;2022-11-14T06:47:20;4.90;;;4.50;;
12768;SDS011;6448;48.916;8.990;2022-11-14T06:48:40;4.53;;;4.18;;
12768;SDS011;6448;48.916;8.990;2022-11-14T06:50:01;4.47;;;4.18;;
12768;SDS011;6448;48.916;8.990;2022-11-14T06:51:21;4.90;;;4.50;;
12768;SDS011;6448;48.916;8.990;2022-11-14T06:52:41;4.60;;;4.30;;
12768;SDS011;6448;48.916;8.990;2022-11-14T06:54:02;4.53;;;4.22;;
12768;SDS011;6448;48.916;8.990;2022-11-14T06:55:23;4.80;;;4.40;;
12768;SDS011;6448;48.916;8.990;2022-11-14T06:56:43;5.25;;;4.85;;
12768;SDS011;6448;48.916;8.990;2022-11-14T06:58:04;5.30;;;4.90;;
12768;SDS011;6448;48.916;8.990;2022-11-14T06:59:25;5.05;;;4.65;;
12768;SDS011;6448;48.916;8.990;2022-11-14T07:00:47;5.38;;;4.90;;
12768;SDS011;6448;48.916;8.990;2022-11-14T07:02:10;5.13;;;4.72;;
12768;SDS011;6448;48.916;8.990;2022-11-14T07:03:31;5.20;;;4.80;;
12768;SDS011;6448;48.916;8.990;2022-11-14T07:04:51;5.00;;;4.60;;
12768;SDS011;6448;48.916;8.990;2022-11-14T07:06:13;5.35;;;4.95;;
12768;SDS011;6448;48.916;8.990;2022-11-14T07:07:35;5.20;;;4.80;;
12768;SDS011;6448;48.916;8.990;2022-11-14T07:08:56;5.20;;;4.80;;
12768;SDS011;6448;48.916;8.990;2022-11-14T07:10:18;4.88;;;4.47;;
12768;SDS011;6448;48.916;8.990;2022-11-14T07:11:39;5.28;;;4.88;;
12768;SDS011;6448;48.916;8.990;2022-11-14T07:13:00;5.20;;;4.70;;
12768;SDS011;6448;48.916;8.990;2022-11-14T07:14:19;5.25;;;4.85;;
12768;SDS011;6448;48.916;8.990;2022-11-14T07:15:48;5.30;;;4.90;;
12768;SDS011;6448;48.916;8.990;2022-11-14T07:17:09;5.38;;;4.88;;
12768;SDS011;6448;48.916;8.990;2022-11-14T07:18:30;5.18;;;4.78;;
12768;SDS011;6448;48.916;8.990;2022-11-14T07:19:51;5.50;;;5.10;;
12768;SDS011;6448;48.916;8.990;2022-11-14T07:21:11;6.00;;;5.50;;
12768;SDS011;6448;48.916;8.990;2022-11-14T07:22:32;5.18;;;4.78;;
12768;SDS011;6448;48.916;8.990;2022-11-14T07:23:53;5.82;;;5.32;;
12768;SDS011;6448;48.916;8.990;2022-11-14T07:25:14;5.70;;;5.25;;
12768;SDS011;6448;48.916;8.990;2022-11-14T07:26:34;5.47;;;5.07;;
12768;SDS011;6448;48.916;8.990;2022-11-14T07:27:55;5.28;;;4.88;;
12768;SDS011;6448;48.916;8.990;2022-11-14T07:29:16;5.20;;;4.80;;
12768;SDS011;6448;48.916;8.990;2022-11-14T07:30:37;5.10;;;4.70;;
12768;SDS011;6448;48.916;8.990;2022-11-14T07:31:58;5.20;;;4.80;;
12768;SDS011;6448;48.916;8.990;2022-11-14T07:33:18;4.85;;;4.47;;
12768;SDS011;6448;48.916;8.990;2022-11-14T07:34:39;5.20;;;4.80;;
12768;SDS011;6448;48.916;8.990;2022-11-14T07:36:00;4.82;;;4.43;;
12768;SDS011;6448;48.916;8.990;2022-11-14T07:37:20;5.20;;;4.80;;
12768;SDS011;6448;48.916;8.990;2022-11-14T07:38:41;5.03;;;4.65;;
12768;SDS011;6448;48.916;8.990;2022-11-14T07:40:01;4.63;;;4.32;;
12768;SDS011;6448;48.916;8.990;2022-11-14T07:41:30;4.80;;;4.40;;
12768;SDS011;6448;48.916;8.990;2022-11-14T07:42:52;5.10;;;4.70;;
12768;SDS011;6448;48.916;8.990;2022-11-14T07:44:16;5.53;;;5.13;;
12768;SDS011;6448;48.916;8.990;2022-11-14T07:45:36;5.65;;;5.25;;
12768;SDS011;6448;48.916;8.990;2022-11-14T07:46:57;5.50;;;5.10;;
12768;SDS011;6448;48.916;8.990;2022-11-14T07:48:17;5.22;;;4.82;;
12768;SDS011;6448;48.916;8.990;2022-11-14T07:49:39;5.45;;;5.05;;
12768;SDS011;6448;48.916;8.990;2022-11-14T07:51:00;5.63;;;5.20;;
12768;SDS011;6448;48.916;8.990;2022-11-14T07:52:21;5.50;;;5.10;;
12768;SDS011;6448;48.916;8.990;2022-11-14T07:53:41;5.38;;;4.88;;
12768;SDS011;6448;48.916;8.990;2022-11-14T07:55:01;5.45;;;5.05;;
12768;SDS011;6448;48.916;8.990;2022-11-14T07:56:22;5.70;;;5.20;;
12768;SDS011;6448;48.916;8.990;2022-11-14T07:57:43;5.63;;;5.22;;
12768;SDS011;6448;48.916;8.990;2022-11-14T07:59:05;5.65;;;5.25;;
12768;SDS011;6448;48.916;8.990;2022-11-14T08:00:26;5.43;;;5.03;;
12768;SDS011;6448;48.916;8.990;2022-11-14T08:01:46;5.70;;;5.30;;
12768;SDS011;6448;48.916;8.990;2022-11-14T08:03:07;5.55;;;5.15;;
12768;SDS011;6448;48.916;8.990;2022-11-14T08:04:49;5.60;;;5.20;;
12768;SDS011;6448;48.916;8.990;2022-11-14T08:06:10;5.55;;;5.15;;
12768;SDS011;6448;48.916;8.990;2022-11-14T08:07:32;5.90;;;5.40;;
12768;SDS011;6448;48.916;8.990;2022-11-14T08:08:54;5.57;;;5.07;;
12768;SDS011;6448;48.916;8.990;2022-11-14T08:10:15;5.50;;;5.10;;
12768;SDS011;6448;48.916;8.990;2022-11-14T08:11:36;5.70;;;5.30;;
12768;SDS011;6448;48.916;8.990;2022-11-14T08:13:10;5.65;;;5.15;;
12768;SDS011;6448;48.916;8.990;2022-11-14T08:14:32;5.65;;;5.15;;